»·PEaware :: N4099A L52-L88

N4099A :: L52-L88

FLIGHT INFORMATION

Flight Status: Arrived
Operator: Privately registered:
United States
More flights under this callsign
Pilot: Timothy L. (15363)
Aircraft: CESSNA 172 SKYHAWK
(C172)
More flights by this aircraft type
Origin: L52 Oceano Co
United States
Destination: L88 New Cuyama
United States
More flights between these airports :: More routes between these airports
Route:
File this flight plan on PilotEdge
Remarks: CAT-1
Altitude:
(Current/Filed)
5,500ft
Speed:
(Current/Filed)
110kts
Departed: 30-Dec-17 03:44 PM
Arrived: 30-Dec-17 04:14 PM
Distance/Time
Traveled:
47nm/0:30
Distance/Time
To Go:
Arrived

Flight Plot

Page will automatically refresh every two minutes.


Map Options




Map Legend


Flown Route
Filed Route
Departure Airport
Arrival Airport
Navaid (VOR, NDB)
Fix

Horizontal Profiles

Position Reports

Time Latitude Longitude Heading Altitude Ground
Speed
30-Dec-17 15:43 35.102465 -120.622783 34 16ft 0kts
30-Dec-17 15:44 35.102465 -120.622783 34 16ft 0kts
30-Dec-17 15:45 35.102407 -120.622625 175 17ft 0kts
30-Dec-17 15:46 35.102544 -120.623107 311 16ft 1kts
30-Dec-17 15:47 35.102393 -120.624077 215 15ft 7kts
30-Dec-17 15:48 35.101089 -120.622373 122 16ft 13kts
30-Dec-17 15:49 35.099579 -120.619453 91 17ft 0kts
30-Dec-17 15:50 35.102025 -120.623156 299 20ft 77kts
30-Dec-17 15:51 35.099386 -120.636809 139 1171ft 79kts
30-Dec-17 15:52 35.089396 -120.608880 119 2141ft 89kts
30-Dec-17 15:53 35.074830 -120.584847 113 3135ft 86kts
30-Dec-17 15:54 35.073951 -120.556463 89 4097ft 85kts
30-Dec-17 15:55 35.072778 -120.527730 95 5001ft 84kts
30-Dec-17 15:56 35.068906 -120.493940 98 5507ft 117kts
30-Dec-17 15:57 35.062614 -120.450161 99 5517ft 137kts
30-Dec-17 15:58 35.055494 -120.404245 99 5517ft 138kts
30-Dec-17 15:59 35.048254 -120.358324 99 5518ft 137kts
30-Dec-17 16:00 35.068204 -120.326556 26 5517ft 128kts
30-Dec-17 16:01 35.098992 -120.304187 27 5517ft 128kts
30-Dec-17 16:02 35.129495 -120.281515 30 5516ft 128kts
30-Dec-17 16:03 35.138736 -120.243633 101 5517ft 137kts
30-Dec-17 16:04 35.131951 -120.197652 97 5515ft 137kts
30-Dec-17 16:05 35.126463 -120.151366 97 5512ft 137kts
30-Dec-17 16:06 35.121044 -120.105060 97 5508ft 138kts
30-Dec-17 16:07 35.115517 -120.058134 98 5404ft 145kts
30-Dec-17 16:08 35.102910 -120.010660 123 4905ft 151kts
30-Dec-17 16:09 35.081022 -119.966848 123 4396ft 151kts
30-Dec-17 16:10 35.059286 -119.923261 124 3894ft 150kts
30-Dec-17 16:11 35.037752 -119.879883 123 3485ft 145kts
30-Dec-17 16:12 35.017471 -119.839256 124 3362ft 145kts
30-Dec-17 16:13 34.996479 -119.805340 121 2968ft 124kts
30-Dec-17 16:14 34.985739 -119.772087 110 3305ft 120kts
30-Dec-17 16:15 34.977965 -119.735149 103 3341ft 137kts
30-Dec-17 16:16 34.971697 -119.696317 95 3430ft 138kts
30-Dec-17 16:17 34.959585 -119.662208 194 3203ft 120kts
30-Dec-17 16:18 34.955224 -119.686925 298 3080ft 82kts
30-Dec-17 16:19 34.950362 -119.700979 161 2868ft 86kts
30-Dec-17 16:20 34.939920 -119.685610 102 2177ft 1kts
30-Dec-17 16:21 34.941268 -119.688840 291 2162ft 19kts
30-Dec-17 16:22 34.942662 -119.691105 346 2155ft 7kts
30-Dec-17 16:23 34.942794 -119.690713 168 2156ft 0kts
30-Dec-17 16:24 34.942794 -119.690713 168 2156ft 0kts
30-Dec-17 16:25 34.942794 -119.690713 168 2156ft 0kts
30-Dec-17 16:26 34.942794 -119.690713 168 2156ft 0kts
30-Dec-17 16:27 34.942794 -119.690713 168 2156ft 0kts
30-Dec-17 16:28 34.942794 -119.690713 168 2156ft 0kts
30-Dec-17 16:29 34.942794 -119.690713 168 2156ft 0kts
30-Dec-17 16:30 34.942794 -119.690713 168 2156ft 0kts
30-Dec-17 16:31 34.942794 -119.690713 168 2156ft 0kts
30-Dec-17 16:32 34.942794 -119.690713 168 2156ft 0kts

Navigation Log

Ident Type
Flight plan parsing failed, navigation log unavailable